Time;durP1;ratioP1;P1;durP2;ratioP2;P2;SDS_P1;SDS_P2;PMS_P1;PMS_P2;Temp;Humidity;BMP_temperature;BMP_pressure;BME280_temperature;BME280_humidity;BME280_pressure;Samples;Min_cycle;Max_cycle;Signal;HPM_P1;HPM_P2
2021/05/10 00:01:05;;;;;;;11.45;3.97;;;21.70;99.90;;;;;;5039305;28;20057;-75
2021/05/10 00:03:31;;;;;;;8.50;4.50;;;21.70;99.90;;;;;;5032256;28;20417;-76
2021/05/10 00:05:58;;;;;;;6.57;3.83;;;21.60;99.90;;;;;;5031842;28;20138;-76
2021/05/10 00:08:26;;;;;;;9.55;3.80;;;21.60;99.90;;;;;;5031536;28;20132;-77
2021/05/10 00:10:53;;;;;;;7.72;3.60;;;21.60;99.90;;;;;;5031920;28;20077;-76
2021/05/10 00:13:19;;;;;;;6.60;3.60;;;21.50;99.90;;;;;;5031613;28;20422;-78
2021/05/10 00:15:46;;;;;;;7.28;3.60;;;21.40;99.90;;;;;;5031633;28;20082;-77
2021/05/10 00:18:13;;;;;;;5.95;3.85;;;21.40;99.90;;;;;;5031586;28;20050;-77
2021/05/10 00:20:42;;;;;;;5.50;3.30;;;21.40;99.90;;;;;;5031992;28;20092;-78
2021/05/10 00:23:10;;;;;;;5.30;3.00;;;21.30;99.90;;;;;;5031489;28;20136;-77
2021/05/10 00:25:37;;;;;;;4.45;3.00;;;21.30;99.90;;;;;;5031819;28;20081;-77
2021/05/10 00:28:04;;;;;;;4.53;3.40;;;21.30;99.90;;;;;;5031243;28;20133;-76
2021/05/10 00:30:31;;;;;;;7.35;3.50;;;21.30;99.90;;;;;;5031617;28;20565;-76
2021/05/10 00:32:58;;;;;;;8.82;3.80;;;21.30;99.90;;;;;;5031658;28;20151;-77
2021/05/10 00:35:25;;;;;;;6.93;3.58;;;21.40;99.90;;;;;;5031669;28;20161;-76
2021/05/10 00:37:52;;;;;;;7.25;3.45;;;21.30;99.90;;;;;;5031296;28;20045;-76
2021/05/10 00:40:21;;;;;;;6.10;3.58;;;21.40;99.90;;;;;;5034173;28;20084;-76
2021/05/10 00:42:48;;;;;;;11.30;4.30;;;21.30;99.90;;;;;;5035271;28;20100;-75
2021/05/10 00:45:15;;;;;;;6.97;3.67;;;21.40;99.90;;;;;;5035641;28;20049;-76
2021/05/10 00:47:42;;;;;;;7.55;4.22;;;21.50;99.90;;;;;;5035318;28;20049;-78
2021/05/10 00:50:10;;;;;;;7.65;3.72;;;21.50;99.90;;;;;;5035512;28;20145;-77
2021/05/10 00:52:37;;;;;;;5.88;3.70;;;21.50;99.90;;;;;;5035495;28;20128;-76
2021/05/10 00:55:05;;;;;;;8.23;3.80;;;21.60;99.90;;;;;;5035383;28;20056;-75
2021/05/10 00:57:37;;;;;;;7.75;3.50;;;21.60;99.90;;;;;;5034693;28;20080;-75
2021/05/10 01:00:05;;;;;;;5.40;2.95;;;21.60;99.90;;;;;;5035269;28;20470;-75
2021/05/10 01:02:31;;;;;;;6.25;3.13;;;21.60;99.90;;;;;;5035041;28;20128;-76
2021/05/10 01:04:58;;;;;;;5.95;3.38;;;21.50;99.90;;;;;;5034868;28;20085;-76
2021/05/10 01:07:24;;;;;;;4.50;3.33;;;21.50;99.90;;;;;;5034587;28;20081;-76
2021/05/10 01:09:50;;;;;;;5.55;3.35;;;21.50;99.90;;;;;;5034739;28;20057;-76
2021/05/10 01:12:17;;;;;;;4.72;3.35;;;21.50;99.90;;;;;;5034575;28;20056;-76
2021/05/10 01:14:44;;;;;;;5.70;3.40;;;21.50;99.90;;;;;;5034744;28;20129;-78
2021/05/10 01:17:11;;;;;;;7.68;3.45;;;21.40;99.90;;;;;;5034670;28;20520;-77
2021/05/10 01:19:37;;;;;;;3.90;3.10;;;21.40;99.90;;;;;;5034494;28;20073;-77
2021/05/10 01:22:05;;;;;;;7.97;3.90;;;21.40;99.90;;;;;;5034383;28;20136;-77
2021/05/10 01:24:33;;;;;;;6.05;3.58;;;21.40;99.90;;;;;;5034475;28;20105;-77
2021/05/10 01:27:00;;;;;;;5.65;3.40;;;21.40;99.90;;;;;;5034404;28;20478;-78
2021/05/10 01:29:27;;;;;;;7.05;3.30;;;21.50;99.90;;;;;;5034828;28;20085;-78
2021/05/10 01:31:53;;;;;;;4.70;3.40;;;21.40;99.90;;;;;;5034649;28;20060;-77
2021/05/10 01:34:19;;;;;;;7.55;3.58;;;21.40;99.90;;;;;;5034411;28;20128;-77
2021/05/10 01:36:46;;;;;;;9.35;3.50;;;21.40;99.90;;;;;;5034254;28;20149;-78
2021/05/10 01:39:12;;;;;;;5.93;3.50;;;21.40;99.90;;;;;;5034013;28;20134;-77
2021/05/10 01:41:40;;;;;;;5.80;3.10;;;21.60;99.90;;;;;;5033971;28;20132;-77
2021/05/10 01:44:07;;;;;;;4.88;3.00;;;21.70;99.90;;;;;;5034278;28;20143;-79
2021/05/10 01:46:33;;;;;;;5.97;3.10;;;21.80;99.90;;;;;;5034189;28;20059;-77
2021/05/10 01:49:01;;;;;;;5.28;3.35;;;21.90;99.90;;;;;;5034312;28;20212;-78
2021/05/10 01:51:28;;;;;;;4.00;2.90;;;21.90;99.90;;;;;;5032849;28;20053;-78
2021/05/10 01:53:54;;;;;;;4.65;3.50;;;21.90;99.90;;;;;;5034798;28;20116;-78
2021/05/10 01:56:21;;;;;;;11.00;3.47;;;21.90;99.90;;;;;;5033840;28;20112;-77
2021/05/10 01:58:54;;;;;;;3.70;2.90;;;21.90;99.90;;;;;;5034617;28;20103;-78
2021/05/10 02:01:22;;;;;;;4.82;3.20;;;22.00;99.90;;;;;;5034726;28;20137;-78
2021/05/10 02:03:48;;;;;;;4.55;3.35;;;22.00;99.90;;;;;;5034620;28;20485;-78
2021/05/10 02:06:15;;;;;;;5.32;3.08;;;21.90;99.90;;;;;;5033882;28;20097;-77
2021/05/10 02:08:44;;;;;;;4.07;2.95;;;21.90;99.90;;;;;;5034130;28;20056;-78
2021/05/10 02:11:10;;;;;;;5.00;2.97;;;21.90;99.90;;;;;;5033907;28;20057;-78
2021/05/10 02:13:37;;;;;;;4.68;3.40;;;21.80;99.90;;;;;;5033541;28;20081;-78
2021/05/10 02:16:04;;;;;;;5.55;3.13;;;21.70;99.90;;;;;;5033529;28;20132;-78
2021/05/10 02:18:34;;;;;;;5.80;3.50;;;21.70;99.90;;;;;;5033511;28;20105;-78
2021/05/10 02:21:00;;;;;;;5.63;3.30;;;21.60;99.90;;;;;;5033643;28;20057;-77
2021/05/10 02:23:29;;;;;;;6.32;3.08;;;21.60;99.90;;;;;;5033112;28;20084;-77
2021/05/10 02:25:56;;;;;;;8.90;3.13;;;21.50;99.90;;;;;;5033289;28;20128;-78
2021/05/10 02:28:25;;;;;;;5.03;3.45;;;21.50;99.90;;;;;;5033105;28;20136;-78
2021/05/10 02:30:52;;;;;;;8.52;3.70;;;21.50;99.90;;;;;;5033181;28;20426;-78
2021/05/10 02:33:22;;;;;;;6.15;3.90;;;21.50;99.90;;;;;;5033089;28;20415;-78
2021/05/10 02:35:51;;;;;;;6.75;4.03;;;21.50;99.90;;;;;;5033412;28;20467;-77
2021/05/10 02:38:18;;;;;;;6.72;4.03;;;21.50;99.90;;;;;;5033197;28;20144;-77
2021/05/10 02:40:46;;;;;;;11.48;4.43;;;21.40;99.90;;;;;;5032960;28;20136;-77
2021/05/10 02:43:12;;;;;;;5.15;3.40;;;21.30;99.90;;;;;;5032975;28;20050;-77
2021/05/10 02:45:39;;;;;;;7.03;3.38;;;21.30;99.90;;;;;;5033019;28;20136;-77
2021/05/10 02:48:06;;;;;;;4.97;3.67;;;21.30;99.90;;;;;;5033062;28;20091;-77
2021/05/10 02:50:33;;;;;;;6.65;3.80;;;21.20;99.90;;;;;;5033713;28;20469;-77
2021/05/10 02:53:01;;;;;;;8.52;3.50;;;21.20;99.90;;;;;;5032915;28;20095;-76
2021/05/10 02:55:28;;;;;;;8.63;4.20;;;21.10;99.90;;;;;;5032479;28;20053;-75
2021/05/10 02:57:54;;;;;;;6.85;4.05;;;21.00;99.90;;;;;;5032237;28;20141;-75
2021/05/10 03:00:23;;;;;;;5.82;4.05;;;21.00;99.90;;;;;;5032433;28;20100;-76
2021/05/10 03:02:49;;;;;;;6.45;4.00;;;21.00;99.90;;;;;;5032237;28;20081;-76
2021/05/10 03:05:16;;;;;;;6.38;3.60;;;21.00;99.90;;;;;;5032761;28;20081;-77
2021/05/10 03:07:44;;;;;;;7.55;3.80;;;20.90;99.90;;;;;;5032435;28;20509;-76
2021/05/10 03:10:13;;;;;;;5.85;3.90;;;20.90;99.90;;;;;;5032116;28;20136;-76
2021/05/10 03:12:40;;;;;;;8.73;3.63;;;20.80;99.90;;;;;;5032118;28;20589;-77
2021/05/10 03:15:09;;;;;;;6.68;3.60;;;20.70;99.90;;;;;;5032344;28;20068;-76
2021/05/10 03:17:35;;;;;;;6.30;3.70;;;20.60;99.90;;;;;;5032099;28;20057;-76
2021/05/10 03:20:04;;;;;;;7.18;3.50;;;20.50;99.90;;;;;;5032261;28;20101;-76
2021/05/10 03:22:30;;;;;;;3.92;3.50;;;20.40;99.90;;;;;;5032015;28;20099;-76
2021/05/10 03:24:58;;;;;;;8.27;4.00;;;20.40;99.90;;;;;;5032069;28;20049;-76
2021/05/10 03:27:24;;;;;;;8.02;3.80;;;20.40;99.90;;;;;;5031565;28;20049;-76
2021/05/10 03:29:51;;;;;;;5.80;3.70;;;20.30;99.90;;;;;;5032306;28;20080;-76
2021/05/10 03:32:17;;;;;;;6.72;3.70;;;20.30;99.90;;;;;;5031843;28;20088;-76
2021/05/10 03:34:44;;;;;;;6.85;3.40;;;20.30;99.90;;;;;;5032198;28;20132;-76
2021/05/10 03:37:10;;;;;;;4.78;3.40;;;20.30;99.90;;;;;;5031945;28;20438;-76
2021/05/10 03:39:37;;;;;;;5.72;3.67;;;20.30;99.90;;;;;;5031921;28;20553;-77
2021/05/10 03:42:05;;;;;;;6.53;3.65;;;20.30;99.90;;;;;;5031671;28;20136;-76
2021/05/10 03:44:32;;;;;;;9.00;4.20;;;20.30;99.90;;;;;;5031953;28;20077;-77
2021/05/10 03:46:58;;;;;;;10.75;4.20;;;20.30;99.90;;;;;;5031454;28;20540;-77
2021/05/10 03:49:24;;;;;;;8.02;4.65;;;20.30;99.90;;;;;;5032106;28;20524;-77
2021/05/10 03:51:51;;;;;;;7.68;4.38;;;20.30;99.90;;;;;;5031983;28;20128;-77
2021/05/10 03:54:17;;;;;;;8.25;3.30;;;20.30;99.90;;;;;;5031602;28;20573;-76
2021/05/10 03:56:44;;;;;;;6.80;3.63;;;20.40;99.90;;;;;;5031617;28;20132;-75
2021/05/10 03:59:11;;;;;;;4.70;3.30;;;20.50;99.90;;;;;;5031869;28;20059;-76
2021/05/10 04:01:37;;;;;;;6.70;3.50;;;20.60;99.90;;;;;;5031888;28;20045;-75
2021/05/10 04:04:13;;;;;;;4.68;3.53;;;20.70;99.90;;;;;;5031660;28;20055;-76
2021/05/10 04:09:34;;;;;;;4.97;3.53;;;20.80;99.90;;;;;;5031907;28;20512;-75
2021/05/10 04:14:45;;;;;;;4.25;3.45;;;20.70;99.90;;;;;;5033534;28;20525;-76
2021/05/10 04:17:12;;;;;;;9.07;5.03;;;20.70;99.90;;;;;;5035280;28;20526;-77
2021/05/10 04:19:38;;;;;;;8.82;3.40;;;20.70;99.90;;;;;;5037136;28;20060;-77
2021/05/10 04:22:04;;;;;;;4.93;3.50;;;20.70;99.90;;;;;;5036552;28;20132;-77
2021/05/10 04:24:31;;;;;;;5.43;3.38;;;20.70;99.90;;;;;;5037064;28;20076;-77
2021/05/10 04:26:57;;;;;;;9.68;3.75;;;20.70;99.90;;;;;;5042037;28;20076;-77
2021/05/10 04:29:24;;;;;;;17.52;4.28;;;20.70;99.90;;;;;;5050976;28;20062;-77
2021/05/10 04:31:51;;;;;;;11.70;3.75;;;20.70;99.90;;;;;;5052577;28;20069;-78
2021/05/10 04:34:17;;;;;;;10.05;3.53;;;20.70;99.90;;;;;;5053258;28;20100;-76
2021/05/10 04:36:43;;;;;;;7.90;3.42;;;20.70;99.90;;;;;;5041273;28;20057;-76
2021/05/10 04:39:10;;;;;;;5.45;3.72;;;20.70;99.90;;;;;;5035521;28;20091;-76
2021/05/10 04:41:36;;;;;;;5.95;3.40;;;20.70;99.90;;;;;;5035214;28;20085;-77
2021/05/10 04:44:03;;;;;;;8.75;3.72;;;20.70;99.90;;;;;;5034759;28;20049;-77
2021/05/10 04:46:30;;;;;;;5.63;3.25;;;20.70;99.90;;;;;;5034765;28;20126;-76
2021/05/10 04:48:57;;;;;;;4.78;3.45;;;20.70;99.90;;;;;;5034945;28;20096;-77
2021/05/10 04:51:24;;;;;;;6.93;3.72;;;20.60;99.90;;;;;;5034992;28;20057;-75
2021/05/10 04:53:50;;;;;;;9.10;3.78;;;20.60;99.90;;;;;;5034961;28;20085;-77
2021/05/10 04:56:16;;;;;;;9.63;3.53;;;20.60;99.90;;;;;;5034741;28;20128;-76
2021/05/10 04:58:43;;;;;;;6.47;3.45;;;20.50;99.90;;;;;;5035150;28;20132;-77
2021/05/10 05:01:09;;;;;;;5.82;3.53;;;20.60;99.90;;;;;;5035145;28;20211;-77
2021/05/10 05:03:35;;;;;;;5.90;3.22;;;20.50;99.90;;;;;;5035437;28;20080;-77
2021/05/10 05:06:03;;;;;;;6.38;3.58;;;20.50;99.90;;;;;;5034969;28;20092;-76
2021/05/10 05:08:29;;;;;;;6.57;3.50;;;20.50;99.90;;;;;;5034580;28;20179;-76
2021/05/10 05:10:56;;;;;;;6.63;3.35;;;20.40;99.90;;;;;;5034887;28;20335;-76
2021/05/10 05:13:23;;;;;;;9.15;3.63;;;20.50;99.90;;;;;;5034592;28;20107;-77
2021/05/10 05:15:49;;;;;;;7.03;3.40;;;20.50;99.90;;;;;;5034844;28;20060;-76
2021/05/10 05:18:16;;;;;;;4.40;3.15;;;20.40;99.90;;;;;;5034595;28;20521;-76
2021/05/10 05:20:43;;;;;;;5.72;3.03;;;20.40;99.90;;;;;;5035166;28;20132;-76
2021/05/10 05:23:21;;;;;;;7.95;3.67;;;20.40;99.90;;;;;;5033389;22;20530;-77
2021/05/10 05:25:47;;;;;;;8.00;3.65;;;20.40;99.90;;;;;;5004838;28;20415;-76
2021/05/10 05:28:14;;;;;;;5.90;3.33;;;20.30;99.90;;;;;;4995677;28;20084;-77
2021/05/10 05:30:40;;;;;;;4.88;3.45;;;20.30;99.90;;;;;;4996478;28;20069;-77
2021/05/10 05:33:06;;;;;;;5.50;3.60;;;20.30;99.90;;;;;;4996367;28;20077;-79
2021/05/10 05:35:33;;;;;;;4.63;3.25;;;20.30;99.90;;;;;;4998776;28;20053;-79
2021/05/10 05:37:59;;;;;;;7.18;3.20;;;20.30;99.90;;;;;;5001206;28;20523;-79
2021/05/10 05:40:27;;;;;;;5.18;3.20;;;20.30;99.90;;;;;;4999296;28;20070;-80
2021/05/10 05:42:53;;;;;;;6.90;3.42;;;20.30;99.90;;;;;;4999939;28;20110;-79
2021/05/10 05:45:19;;;;;;;4.93;3.30;;;20.30;99.90;;;;;;5001969;28;20046;-79
2021/05/10 05:47:46;;;;;;;6.10;3.30;;;20.30;99.90;;;;;;5000420;28;20411;-79
2021/05/10 05:50:13;;;;;;;4.47;3.22;;;20.20;99.90;;;;;;5002978;28;20046;-79
2021/05/10 05:52:39;;;;;;;4.53;3.33;;;20.30;99.90;;;;;;5000899;28;20511;-79
2021/05/10 05:55:06;;;;;;;9.50;3.67;;;20.20;99.90;;;;;;4997560;28;20059;-78
2021/05/10 05:57:34;;;;;;;5.60;3.70;;;20.20;99.90;;;;;;5000115;28;20104;-80
2021/05/10 06:00:02;;;;;;;10.38;3.55;;;20.20;99.90;;;;;;5005994;28;20061;-79
2021/05/10 06:02:28;;;;;;;9.27;4.00;;;20.20;99.90;;;;;;5010975;28;20050;-80
2021/05/10 06:04:55;;;;;;;10.38;3.95;;;20.20;99.90;;;;;;5011644;28;20050;-81
2021/05/10 06:07:21;;;;;;;8.32;3.72;;;20.20;99.90;;;;;;5007300;28;20101;-82
2021/05/10 06:09:48;;;;;;;6.38;3.55;;;20.20;99.90;;;;;;5003775;28;20058;-81
2021/05/10 06:12:15;;;;;;;7.15;3.78;;;20.20;99.90;;;;;;5002110;28;20058;-80
2021/05/10 06:14:42;;;;;;;6.35;4.05;;;20.20;99.90;;;;;;5005435;28;20069;-83
2021/05/10 06:17:10;;;;;;;7.65;3.70;;;20.20;99.90;;;;;;5003026;28;20054;-83
2021/05/10 06:19:37;;;;;;;4.78;3.58;;;20.10;99.90;;;;;;5001966;28;20129;-83
2021/05/10 06:22:04;;;;;;;6.18;3.67;;;20.10;99.90;;;;;;5002327;28;20060;-83
2021/05/10 06:24:30;;;;;;;7.97;3.83;;;20.20;99.90;;;;;;5002622;28;20046;-81
2021/05/10 06:26:56;;;;;;;9.70;4.65;;;20.20;99.90;;;;;;5002145;28;20054;-81
2021/05/10 06:29:23;;;;;;;7.28;3.78;;;20.10;99.90;;;;;;5003092;28;20109;-79
2021/05/10 06:31:50;;;;;;;9.32;3.97;;;20.10;99.90;;;;;;5003049;28;20085;-80
2021/05/10 06:34:19;;;;;;;4.88;3.70;;;20.10;99.90;;;;;;5003973;28;20074;-81
2021/05/10 06:36:45;;;;;;;8.75;4.18;;;20.30;99.90;;;;;;5006269;28;20089;-82
2021/05/10 06:39:11;;;;;;;7.28;3.85;;;20.70;99.90;;;;;;5004432;28;20418;-79
2021/05/10 06:41:38;;;;;;;8.60;3.55;;;21.10;99.90;;;;;;5004090;28;20058;-81
2021/05/10 06:44:05;;;;;;;6.30;3.80;;;22.10;99.90;;;;;;5003085;28;20106;-83
2021/05/10 06:46:31;;;;;;;10.00;3.65;;;23.00;99.90;;;;;;5002010;28;20046;-81
2021/05/10 06:48:58;;;;;;;5.65;3.35;;;23.80;99.90;;;;;;5001164;28;20050;-79
2021/05/10 06:51:25;;;;;;;8.65;3.50;;;24.60;99.90;;;;;;5001563;28;20117;-78
2021/05/10 06:53:51;;;;;;;7.18;3.53;;;24.90;99.90;;;;;;5002097;28;20585;-80
2021/05/10 06:56:17;;;;;;;8.35;2.85;;;24.80;99.90;;;;;;5002373;28;20047;-81
2021/05/10 06:58:44;;;;;;;8.23;3.17;;;25.10;99.90;;;;;;5003012;28;20566;-80
2021/05/10 07:01:10;;;;;;;9.52;3.28;;;25.30;99.90;;;;;;5001585;28;20096;-80
2021/05/10 07:03:37;;;;;;;9.00;3.67;;;25.30;99.90;;;;;;5002136;28;20066;-81
2021/05/10 07:06:04;;;;;;;6.68;3.33;;;25.60;99.90;;;;;;5001633;28;20051;-81
2021/05/10 07:08:30;;;;;;;8.02;3.90;;;26.10;99.90;;;;;;5000713;28;20070;-82
2021/05/10 07:10:57;;;;;;;7.45;3.10;;;26.70;99.90;;;;;;5000636;28;20073;-82
2021/05/10 07:13:24;;;;;;;5.97;2.88;;;26.90;99.90;;;;;;5001583;28;20082;-81
2021/05/10 07:15:50;;;;;;;8.23;3.38;;;27.20;99.90;;;;;;5004946;28;20050;-82
2021/05/10 07:18:18;;;;;;;6.18;2.97;;;27.70;99.90;;;;;;5021942;28;20073;-80
2021/05/10 07:20:48;;;;;;;8.00;3.25;;;28.20;99.90;;;;;;5017903;28;20096;-80
2021/05/10 07:23:16;;;;;;;6.05;2.90;;;27.80;99.90;;;;;;5019015;28;20085;-80
2021/05/10 07:25:45;;;;;;;4.05;2.63;;;27.10;99.40;;;;;;5020737;28;20088;-80
2021/05/10 07:28:15;;;;;;;3.33;2.50;;;26.10;99.90;;;;;;5019034;28;20088;-80
2021/05/10 07:30:42;;;;;;;3.28;2.50;;;25.50;99.90;;;;;;5021722;28;20065;-82
2021/05/10 07:33:08;;;;;;;5.05;2.90;;;24.80;99.90;;;;;;5017828;28;20060;-79
2021/05/10 07:35:35;;;;;;;2.97;2.30;;;24.30;99.90;;;;;;5018791;28;20054;-83
2021/05/10 07:38:02;;;;;;;3.05;2.42;;;23.70;99.90;;;;;;5017218;28;20045;-81
2021/05/10 07:40:30;;;;;;;4.30;2.50;;;23.60;99.90;;;;;;5019861;28;20086;-81
2021/05/10 07:43:08;;;;;;;3.20;2.13;;;23.20;99.90;;;;;;5074887;22;20042;-85
2021/05/10 07:45:59;;;;;;;3.75;2.22;;;22.80;99.90;;;;;;5026077;28;20049;-82
2021/05/10 07:48:31;;;;;;;2.22;2.03;;;22.70;99.90;;;;;;4982117;28;20076;-80
2021/05/10 07:51:18;;;;;;;5.22;1.92;;;22.40;99.90;;;;;;5026322;28;20058;-83
2021/05/10 07:53:58;;;;;;;2.70;2.25;;;22.20;99.90;;;;;;5023159;28;20049;-80
2021/05/10 07:56:26;;;;;;;2.92;1.80;;;22.20;99.90;;;;;;5040696;22;20042;-79
2021/05/10 07:58:55;;;;;;;2.15;1.85;;;21.90;99.90;;;;;;5020634;28;20117;-79
2021/05/10 08:01:21;;;;;;;3.03;2.20;;;21.80;99.90;;;;;;5015563;28;20050;-78
2021/05/10 08:03:48;;;;;;;3.20;2.60;;;21.60;99.90;;;;;;5014596;28;20360;-77
2021/05/10 08:06:15;;;;;;;5.65;2.30;;;21.60;99.90;;;;;;5013074;28;20082;-78
2021/05/10 08:08:42;;;;;;;2.85;1.67;;;21.50;99.90;;;;;;5015042;28;20550;-79
2021/05/10 08:11:08;;;;;;;4.70;2.03;;;21.40;99.90;;;;;;5014808;28;20052;-77
2021/05/10 08:13:35;;;;;;;3.13;1.90;;;21.40;99.90;;;;;;5015292;28;20081;-78
2021/05/10 08:16:02;;;;;;;2.45;1.50;;;21.40;99.90;;;;;;5012563;28;20129;-77
2021/05/10 08:18:28;;;;;;;3.22;1.90;;;21.40;99.90;;;;;;5012000;28;20145;-76
2021/05/10 08:20:57;;;;;;;6.25;1.95;;;21.40;99.90;;;;;;5012379;28;20092;-79
2021/05/10 08:23:24;;;;;;;2.45;1.67;;;21.30;99.90;;;;;;5013592;28;20054;-77
2021/05/10 08:25:52;;;;;;;5.60;1.83;;;21.20;99.90;;;;;;5013097;28;20049;-77
2021/05/10 08:28:19;;;;;;;2.53;1.55;;;21.10;99.90;;;;;;5012290;28;20072;-78
2021/05/10 08:30:46;;;;;;;2.50;2.13;;;21.00;99.90;;;;;;5013801;28;20073;-78
2021/05/10 08:33:12;;;;;;;5.85;2.03;;;20.80;99.90;;;;;;5014284;28;20558;-77
2021/05/10 08:35:39;;;;;;;7.22;2.63;;;20.70;99.90;;;;;;5017272;28;20045;-77
2021/05/10 08:38:05;;;;;;;4.35;2.10;;;20.60;99.90;;;;;;5017395;28;20114;-78
2021/05/10 08:40:32;;;;;;;5.65;2.08;;;20.60;99.90;;;;;;5022021;28;20085;-78
2021/05/10 08:42:59;;;;;;;2.80;1.30;;;20.40;99.90;;;;;;5019283;28;20081;-79
2021/05/10 08:45:26;;;;;;;3.55;1.40;;;20.40;99.90;;;;;;5013491;28;20049;-78
2021/05/10 08:47:57;;;;;;;2.53;1.63;;;20.40;99.90;;;;;;5010819;28;20173;-79
2021/05/10 08:50:24;;;;;;;1.70;1.50;;;20.50;99.90;;;;;;5018617;28;20124;-78
2021/05/10 08:52:50;;;;;;;1.73;1.55;;;20.60;99.90;;;;;;5013570;28;20089;-77
2021/05/10 08:55:18;;;;;;;2.42;1.20;;;20.80;99.90;;;;;;5020278;28;20206;-79
2021/05/10 08:57:44;;;;;;;3.60;1.42;;;20.80;99.90;;;;;;5011862;28;20479;-79
2021/05/10 09:00:15;;;;;;;2.33;1.80;;;20.80;99.90;;;;;;5013709;28;20064;-79
2021/05/10 09:02:41;;;;;;;1.10;1.00;;;20.80;99.90;;;;;;5016268;28;20569;-77
2021/05/10 09:05:16;;;;;;;1.55;0.98;;;20.80;99.90;;;;;;5015491;28;20081;-77
2021/05/10 09:07:43;;;;;;;2.17;1.35;;;20.80;99.90;;;;;;5014581;28;20129;-78
2021/05/10 09:10:12;;;;;;;4.13;1.85;;;20.90;99.90;;;;;;5015544;28;20140;-79
2021/05/10 09:12:46;;;;;;;1.65;1.35;;;21.10;99.90;;;;;;5018946;28;20119;-79
2021/05/10 09:15:17;;;;;;;1.85;1.30;;;21.10;99.90;;;;;;5020260;28;20494;-80
2021/05/10 09:17:47;;;;;;;2.88;1.10;;;21.10;99.90;;;;;;5017628;28;20049;-79
2021/05/10 09:20:16;;;;;;;0.90;0.80;;;21.10;99.90;;;;;;5017313;28;20088;-77
2021/05/10 09:22:50;;;;;;;1.70;0.98;;;21.10;99.90;;;;;;5018319;28;20049;-79
2021/05/10 09:25:17;;;;;;;6.80;1.17;;;21.00;99.90;;;;;;5018357;28;20092;-78
2021/05/10 09:27:44;;;;;;;1.85;0.95;;;21.00;99.90;;;;;;5015427;28;20053;-79
2021/05/10 09:30:20;;;;;;;2.95;1.17;;;21.10;99.90;;;;;;5015277;28;20081;-78
2021/05/10 09:32:49;;;;;;;2.85;1.05;;;21.20;99.90;;;;;;5014572;28;20180;-78
2021/05/10 09:35:22;;;;;;;1.17;1.05;;;21.10;99.90;;;;;;5014639;28;20129;-78
2021/05/10 09:38:03;;;;;;;1.17;1.02;;;21.20;99.90;;;;;;5016855;28;20050;-79
2021/05/10 09:40:40;;;;;;;3.00;1.40;;;21.10;99.90;;;;;;5015400;28;20473;-80
2021/05/10 09:43:07;;;;;;;2.00;1.38;;;21.10;99.90;;;;;;5015491;28;20050;-78
2021/05/10 09:45:39;;;;;;;2.55;1.60;;;20.90;99.90;;;;;;5015087;28;20042;-78
2021/05/10 09:48:07;;;;;;;1.40;1.05;;;21.00;99.90;;;;;;5014378;28;20072;-78
2021/05/10 09:50:36;;;;;;;2.72;1.25;;;21.00;99.90;;;;;;5013718;28;20133;-76
2021/05/10 09:53:03;;;;;;;2.80;1.25;;;21.00;99.90;;;;;;5013932;28;20149;-77
2021/05/10 09:55:55;;;;;;;2.72;1.40;;;20.90;99.90;;;;;;5013917;28;20161;-78
2021/05/10 09:58:23;;;;;;;1.80;1.27;;;20.90;99.90;;;;;;4994595;28;20053;-78
2021/05/10 10:00:55;;;;;;;5.15;1.17;;;20.70;99.90;;;;;;5013389;28;20092;-78
2021/05/10 10:03:37;;;;;;;2.90;1.20;;;20.70;99.90;;;;;;5013820;28;20046;-78
2021/05/10 10:06:07;;;;;;;4.37;1.50;;;20.80;99.90;;;;;;5015140;28;20312;-79
2021/05/10 10:08:34;;;;;;;3.40;1.60;;;20.90;99.90;;;;;;5013516;28;20417;-77
2021/05/10 10:11:01;;;;;;;2.05;1.70;;;21.00;99.90;;;;;;5004622;28;20064;-78
2021/05/10 10:13:28;;;;;;;2.72;1.42;;;21.00;99.90;;;;;;4993575;28;20160;-78
2021/05/10 10:15:57;;;;;;;1.23;1.17;;;20.90;99.90;;;;;;4994551;28;20402;-77
2021/05/10 10:18:24;;;;;;;2.03;1.48;;;20.90;99.90;;;;;;4993767;28;20574;-78
2021/05/10 10:20:53;;;;;;;3.05;1.58;;;21.00;99.90;;;;;;4996308;28;20058;-78
2021/05/10 10:23:22;;;;;;;3.05;1.25;;;21.10;99.90;;;;;;4994839;28;20058;-78
2021/05/10 10:25:51;;;;;;;4.40;1.38;;;21.00;99.90;;;;;;4995071;28;20066;-78
2021/05/10 10:28:20;;;;;;;1.67;1.58;;;20.90;99.90;;;;;;4998228;28;20168;-79
2021/05/10 10:31:03;;;;;;;4.22;1.48;;;20.90;99.90;;;;;;4994521;28;20073;-79
2021/05/10 10:33:46;;;;;;;1.60;1.50;;;21.00;99.90;;;;;;4997767;28;20160;-78
2021/05/10 10:36:19;;;;;;;1.45;1.35;;;21.20;99.90;;;;;;4993910;28;20121;-77
2021/05/10 10:38:46;;;;;;;3.13;1.50;;;21.50;99.90;;;;;;4994597;28;20046;-78
2021/05/10 10:41:25;;;;;;;2.85;1.58;;;21.50;99.90;;;;;;4996190;28;20050;-78
2021/05/10 10:43:52;;;;;;;1.85;1.75;;;21.60;99.90;;;;;;4995727;28;20051;-78
2021/05/10 10:46:49;;;;;;;2.25;1.50;;;21.50;99.90;;;;;;4993344;28;20403;-80
2021/05/10 10:49:30;;;;;;;2.33;1.88;;;21.60;99.90;;;;;;4993548;28;20546;-78
2021/05/10 10:51:57;;;;;;;2.25;2.05;;;21.60;99.90;;;;;;4993793;28;20365;-78
2021/05/10 10:54:26;;;;;;;2.17;1.98;;;21.60;99.90;;;;;;4994011;28;20436;-78
2021/05/10 10:56:57;;;;;;;4.30;2.40;;;21.50;99.90;;;;;;4992430;28;20073;-77
2021/05/10 10:59:29;;;;;;;2.85;1.77;;;21.50;99.90;;;;;;5013020;28;20049;-78
2021/05/10 11:01:57;;;;;;;3.08;2.20;;;21.50;99.90;;;;;;5003149;28;20125;-78
2021/05/10 11:04:28;;;;;;;4.72;2.45;;;21.60;99.90;;;;;;4993831;28;20054;-80
2021/05/10 11:06:55;;;;;;;4.22;2.58;;;21.70;99.90;;;;;;4993464;28;20074;-77
2021/05/10 11:09:49;;;;;;;2.90;2.13;;;21.70;99.90;;;;;;4995040;28;20046;-79
2021/05/10 11:12:52;;;;;;;2.17;2.03;;;21.70;99.90;;;;;;4990596;28;20058;-78
2021/05/10 11:15:47;;;;;;;3.53;2.20;;;21.70;99.90;;;;;;4997228;28;20046;-79
2021/05/10 11:18:38;;;;;;;4.18;2.33;;;22.10;99.90;;;;;;4994613;28;20104;-78
2021/05/10 11:21:06;;;;;;;4.55;2.22;;;22.50;99.90;;;;;;4994189;28;20088;-79
2021/05/10 11:23:37;;;;;;;2.80;2.00;;;22.70;99.90;;;;;;4994250;28;20057;-78
2021/05/10 11:26:06;;;;;;;2.17;1.73;;;22.70;99.90;;;;;;4993087;28;20180;-78
2021/05/10 11:28:46;;;;;;;6.05;2.53;;;22.60;99.90;;;;;;4992872;28;20450;-78
2021/05/10 11:31:33;;;;;;;3.33;2.53;;;22.70;99.90;;;;;;4993208;28;20506;-78
2021/05/10 11:34:15;;;;;;;3.25;2.35;;;22.70;99.90;;;;;;4992628;28;20053;-79
2021/05/10 11:36:49;;;;;;;3.40;2.20;;;22.70;99.90;;;;;;4993663;28;20085;-75
2021/05/10 11:39:23;;;;;;;3.95;2.60;;;22.70;99.90;;;;;;4993972;28;20125;-79
2021/05/10 11:41:59;;;;;;;2.47;2.05;;;22.80;99.90;;;;;;4993708;28;20589;-77
2021/05/10 11:44:28;;;;;;;2.83;2.25;;;22.70;99.90;;;;;;4992730;28;20108;-77
2021/05/10 11:46:56;;;;;;;4.57;2.33;;;22.60;99.90;;;;;;4991781;28;20052;-77
2021/05/10 11:49:30;;;;;;;2.88;2.10;;;22.50;99.90;;;;;;4992879;28;20050;-77
2021/05/10 11:51:58;;;;;;;4.85;2.72;;;22.50;99.90;;;;;;4996327;28;20050;-80
2021/05/10 11:54:25;;;;;;;5.45;3.03;;;22.40;99.90;;;;;;4993840;28;20057;-76
2021/05/10 11:56:54;;;;;;;4.32;2.70;;;22.30;99.90;;;;;;4992399;28;20078;-78
2021/05/10 11:59:41;;;;;;;3.20;2.40;;;22.30;99.90;;;;;;4992984;28;20169;-77
2021/05/10 12:02:17;;;;;;;2.80;2.22;;;22.30;99.90;;;;;;4993920;28;20471;-76
2021/05/10 12:04:47;;;;;;;3.30;3.00;;;22.40;99.90;;;;;;4999893;28;20050;-76
2021/05/10 12:07:13;;;;;;;4.45;2.60;;;22.40;99.90;;;;;;5002901;28;20110;-80
2021/05/10 12:09:53;;;;;;;3.70;2.20;;;22.50;99.90;;;;;;5010206;28;20065;-81
2021/05/10 12:12:37;;;;;;;2.30;2.10;;;22.50;99.90;;;;;;5001861;28;20141;-78
2021/05/10 12:15:15;;;;;;;2.08;1.95;;;22.40;99.90;;;;;;5000929;28;20100;-77
2021/05/10 12:17:44;;;;;;;3.78;2.67;;;22.10;99.90;;;;;;5017936;28;20745;-78
2021/05/10 12:20:12;;;;;;;13.98;3.55;;;21.50;99.90;;;;;;5012886;28;20053;-78
2021/05/10 12:22:43;;;;;;;7.70;2.70;;;20.80;99.90;;;;;;5012827;28;20421;-78
2021/05/10 12:25:26;;;;;;;6.47;2.60;;;20.30;99.90;;;;;;5011188;28;20050;-77
2021/05/10 12:28:03;;;;;;;4.72;2.80;;;20.00;99.90;;;;;;4993332;28;20101;-78
2021/05/10 12:30:32;;;;;;;6.70;3.08;;;19.70;99.90;;;;;;4993412;28;20056;-79
2021/05/10 12:33:01;;;;;;;7.00;3.00;;;19.50;99.90;;;;;;4992382;28;20054;-77
2021/05/10 12:35:30;;;;;;;5.18;2.45;;;19.40;99.90;;;;;;4993372;28;20050;-78
2021/05/10 12:37:58;;;;;;;2.20;2.00;;;19.30;99.90;;;;;;4996286;28;20050;-76
2021/05/10 12:40:27;;;;;;;4.38;2.35;;;19.20;99.90;;;;;;4996493;28;20142;-79
2021/05/10 12:43:09;;;;;;;6.57;2.80;;;19.10;99.90;;;;;;4998128;28;20082;-78
2021/05/10 12:45:37;;;;;;;5.53;2.25;;;19.00;99.90;;;;;;4998100;28;20502;-78
2021/05/10 12:48:17;;;;;;;5.40;2.33;;;19.20;99.90;;;;;;4995625;28;20058;-78
2021/05/10 12:50:46;;;;;;;4.30;2.47;;;19.30;99.90;;;;;;4996617;28;20085;-78
2021/05/10 12:53:13;;;;;;;5.55;2.00;;;19.20;99.90;;;;;;4997122;28;20137;-78
2021/05/10 12:55:41;;;;;;;6.10;2.45;;;19.10;99.90;;;;;;4997534;28;20145;-78
2021/05/10 12:58:22;;;;;;;4.57;2.25;;;19.30;99.90;;;;;;4995234;28;20425;-77
2021/05/10 13:00:49;;;;;;;6.82;2.70;;;19.40;99.90;;;;;;5000390;28;20101;-77